Time;durP1;ratioP1;P1;durP2;ratioP2;P2;SDS_P1;SDS_P2;PMS_P1;PMS_P2;Temp;Humidity;BMP_temperature;BMP_pressure;BME280_temperature;BME280_humidity;BME280_pressure;Samples;Min_cycle;Max_cycle;Signal;HPM_P1;HPM_P2
2022/04/12 00:00:06;;;;;;;8.32;3.10;;;;;;;-148.16;100.00;58328.31;5072329;28;20049;-51
2022/04/12 00:03:05;;;;;;;1.67;1.02;;;;;;;-148.16;100.00;58328.31;5072249;28;20052;-53
2022/04/12 00:05:51;;;;;;;7.70;3.78;;;;;;;-148.16;100.00;58328.31;5072441;28;20045;-50
2022/04/12 00:08:35;;;;;;;6.25;3.30;;;;;;;-148.16;100.00;58328.31;5052733;28;20408;-50
2022/04/12 00:11:20;;;;;;;7.40;3.47;;;;;;;-148.16;100.00;58328.31;5052627;28;20076;-51
2022/04/12 00:14:04;;;;;;;6.32;3.83;;;;;;;-148.16;100.00;58328.31;5060309;28;20047;-52
2022/04/12 00:19:02;;;;;;;7.15;3.35;;;;;;;-148.16;100.00;58328.31;5071050;28;20048;-55
2022/04/12 00:19:56;;;;;;;8.30;3.28;;;;;;;-148.16;100.00;58328.31;5072110;28;20048;-50
2022/04/12 00:22:41;;;;;;;6.90;4.07;;;;;;;-148.16;100.00;58328.31;5071931;28;20115;-51
2022/04/12 00:25:27;;;;;;;6.43;3.35;;;;;;;-148.16;100.00;58328.31;5072032;28;20040;-50
2022/04/12 00:28:13;;;;;;;7.90;3.58;;;;;;;-148.16;100.00;58328.31;5071644;28;20048;-49
2022/04/12 00:30:58;;;;;;;5.03;3.05;;;;;;;-148.16;100.00;58328.31;5071978;28;20041;-50
2022/04/12 00:33:43;;;;;;;5.57;3.25;;;;;;;-148.16;100.00;58328.31;5070781;28;20634;-50
2022/04/12 00:36:28;;;;;;;6.30;3.25;;;;;;;-148.16;100.00;58328.31;5070894;28;20044;-47
2022/04/12 00:39:13;;;;;;;5.80;3.65;;;;;;;-148.16;100.00;58328.31;5070561;28;20044;-49
2022/04/12 00:41:58;;;;;;;6.07;3.30;;;;;;;-148.16;100.00;58328.31;5070564;28;20052;-47
2022/04/12 00:44:42;;;;;;;6.57;3.45;;;;;;;-148.16;100.00;58328.31;5071614;28;20036;-49
2022/04/12 00:47:27;;;;;;;5.90;2.95;;;;;;;-148.16;100.00;58328.31;5070278;28;20102;-50
2022/04/12 00:50:13;;;;;;;5.25;2.72;;;;;;;-148.16;100.00;58328.31;5071428;28;20036;-51
2022/04/12 00:52:59;;;;;;;5.72;3.40;;;;;;;-148.16;100.00;58328.31;5071615;28;20048;-55
2022/04/12 00:55:45;;;;;;;4.65;2.97;;;;;;;-148.16;100.00;58328.31;5070075;28;20040;-50
2022/04/12 00:58:30;;;;;;;5.63;3.05;;;;;;;-148.16;100.00;58328.31;5071523;28;20051;-53
2022/04/12 01:01:16;;;;;;;5.75;3.13;;;;;;;-148.16;100.00;58328.31;5070302;28;20499;-52
2022/04/12 01:04:01;;;;;;;5.05;3.00;;;;;;;-148.16;100.00;58328.31;5070405;28;20503;-50
2022/04/12 01:06:46;;;;;;;6.90;2.95;;;;;;;-148.16;100.00;58328.31;5070126;28;20818;-50
2022/04/12 01:09:30;;;;;;;6.07;2.90;;;;;;;-148.16;100.00;58328.31;5071308;28;20079;-52
2022/04/12 01:12:18;;;;;;;4.25;2.75;;;;;;;-148.16;100.00;58328.31;5069464;28;20057;-49
2022/04/12 01:15:29;;;;;;;5.47;2.75;;;;;;;-148.16;100.00;58328.31;5071093;28;20496;-49
2022/04/12 01:18:14;;;;;;;3.90;2.47;;;;;;;-148.16;100.00;58328.31;5070190;28;20438;-53
2022/04/12 01:20:59;;;;;;;6.00;3.30;;;;;;;-148.16;100.00;58328.31;5071337;28;20455;-51
2022/04/12 01:24:03;;;;;;;4.70;2.58;;;;;;;-148.16;100.00;58328.31;5071211;28;20059;-55
2022/04/12 01:26:48;;;;;;;5.70;3.05;;;;;;;-148.16;100.00;58328.31;5070941;28;20098;-52
2022/04/12 01:29:35;;;;;;;5.82;3.10;;;;;;;-148.16;100.00;58328.31;5071067;28;20121;-52
2022/04/12 01:32:20;;;;;;;6.82;3.30;;;;;;;-148.16;100.00;58328.31;5055652;28;20055;-52
2022/04/12 01:35:05;;;;;;;4.00;2.35;;;;;;;-148.16;100.00;58328.31;5070069;28;20040;-52
2022/04/12 01:37:50;;;;;;;4.05;2.22;;;;;;;-148.16;100.00;58328.31;5070973;28;20411;-53
2022/04/12 01:40:34;;;;;;;3.40;2.08;;;;;;;-148.16;100.00;58328.31;5071076;28;20041;-53
2022/04/12 01:43:19;;;;;;;8.98;3.22;;;;;;;-148.16;100.00;58328.31;5070600;28;20455;-52
2022/04/12 01:46:04;;;;;;;6.20;3.22;;;;;;;-148.16;100.00;58328.31;5070893;28;20479;-47
2022/04/12 01:48:49;;;;;;;6.28;3.35;;;;;;;-148.16;100.00;58328.31;5071057;28;20048;-51
2022/04/12 01:51:34;;;;;;;7.03;3.20;;;;;;;-148.16;100.00;58328.31;5055717;28;20103;-47
2022/04/12 01:54:19;;;;;;;5.13;2.92;;;;;;;-148.16;100.00;58328.31;5070977;28;20102;-51
2022/04/12 01:57:04;;;;;;;4.85;2.65;;;;;;;-148.16;100.00;58328.31;5070798;28;20047;-50
2022/04/12 01:59:49;;;;;;;6.72;3.03;;;;;;;-148.16;100.00;58328.31;5072185;28;20399;-49
2022/04/12 02:02:33;;;;;;;4.55;2.25;;;;;;;-148.16;100.00;58328.31;5070383;28;20119;-48
2022/04/12 02:05:20;;;;;;;3.95;2.25;;;;;;;-148.16;100.00;58328.31;5074664;28;20518;-50
2022/04/12 02:08:05;;;;;;;5.95;2.53;;;;;;;-148.16;100.00;58328.31;5073044;28;20036;-52
2022/04/12 02:10:50;;;;;;;3.92;2.40;;;;;;;-148.16;100.00;58328.31;5074366;28;20079;-50
2022/04/12 02:13:35;;;;;;;4.00;2.40;;;;;;;-148.16;100.00;58328.31;5074265;28;20048;-51
2022/04/12 02:16:20;;;;;;;6.45;3.03;;;;;;;-148.16;100.00;58328.31;5073780;28;20071;-49
2022/04/12 02:19:05;;;;;;;6.60;3.35;;;;;;;-148.16;100.00;58328.31;5074328;28;20049;-50
2022/04/12 02:21:49;;;;;;;6.85;3.45;;;;;;;-148.16;100.00;58328.31;5074221;28;20040;-50
2022/04/12 02:24:34;;;;;;;8.02;3.53;;;;;;;-148.16;100.00;58328.31;5074054;28;20048;-51
2022/04/12 02:27:19;;;;;;;7.63;3.30;;;;;;;-148.16;100.00;58328.31;5059473;28;20090;-51
2022/04/12 02:30:05;;;;;;;5.82;3.20;;;;;;;-148.16;100.00;58328.31;5058551;28;20445;-53
2022/04/12 02:32:50;;;;;;;5.45;2.72;;;;;;;-148.16;100.00;58328.31;5074094;28;20040;-51
2022/04/12 02:35:35;;;;;;;5.50;2.90;;;;;;;-148.16;100.00;58328.31;5073942;28;20045;-52
2022/04/12 02:38:20;;;;;;;4.78;2.75;;;;;;;-148.16;100.00;58328.31;5073998;28;20068;-50
2022/04/12 02:41:05;;;;;;;10.30;3.70;;;;;;;-148.16;100.00;58328.31;5073623;28;20044;-51
2022/04/12 02:43:50;;;;;;;6.68;3.20;;;;;;;-148.16;100.00;58328.31;5073697;28;20048;-50
2022/04/12 02:46:35;;;;;;;6.45;3.53;;;;;;;-148.16;100.00;58328.31;5073533;28;20053;-52
2022/04/12 02:49:19;;;;;;;6.07;3.42;;;;;;;-148.16;100.00;58328.31;5074274;28;20044;-48
2022/04/12 02:52:04;;;;;;;4.47;1.98;;;;;;;-148.16;100.00;58328.31;5073403;28;20518;-53
2022/04/12 02:54:49;;;;;;;6.90;3.72;;;;;;;-148.16;100.00;58328.31;5072677;28;20040;-50
2022/04/12 02:57:33;;;;;;;4.60;2.83;;;;;;;-148.16;100.00;58328.31;5073673;28;20182;-50
2022/04/12 03:00:18;;;;;;;6.57;3.55;;;;;;;-148.16;100.00;58328.31;5073485;28;20044;-49
2022/04/12 03:03:03;;;;;;;5.50;2.97;;;;;;;-148.16;100.00;58328.31;5072540;28;20072;-51
2022/04/12 03:05:48;;;;;;;5.65;3.03;;;;;;;-148.16;100.00;58328.31;5073465;28;20063;-52
2022/04/12 03:08:33;;;;;;;8.18;3.78;;;;;;;-148.16;100.00;58328.31;5073266;28;20047;-50
2022/04/12 03:11:17;;;;;;;5.97;3.33;;;;;;;-148.16;100.00;58328.31;5053201;28;20052;-51
2022/04/12 03:14:02;;;;;;;8.77;4.03;;;;;;;-148.16;100.00;58328.31;5053288;28;20128;-55
2022/04/12 03:16:48;;;;;;;5.65;1.80;;;;;;;-148.16;100.00;58328.31;5052137;28;20045;-53
2022/04/12 03:19:32;;;;;;;5.10;2.33;;;;;;;-148.16;100.00;58328.31;5053188;28;20357;-54
2022/04/12 03:22:17;;;;;;;7.07;3.67;;;;;;;-148.16;100.00;58328.31;5052884;28;20045;-49
2022/04/12 03:25:02;;;;;;;6.72;3.55;;;;;;;-148.16;100.00;58328.31;5053123;28;20052;-50
2022/04/12 03:27:48;;;;;;;4.97;2.55;;;;;;;-148.16;100.00;58328.31;5065983;28;20041;-51
2022/04/12 03:30:33;;;;;;;4.28;2.28;;;;;;;-148.16;100.00;58328.31;5052075;28;20071;-51
2022/04/12 03:33:18;;;;;;;5.80;2.67;;;;;;;-148.16;100.00;58328.31;5052962;28;20049;-49
2022/04/12 03:36:02;;;;;;;9.02;3.85;;;;;;;-148.16;100.00;58328.31;5053017;28;20049;-52
2022/04/12 03:38:51;;;;;;;4.20;2.10;;;;;;;-148.16;100.00;58328.31;5052936;28;20519;-51
2022/04/12 03:41:35;;;;;;;5.45;3.15;;;;;;;-148.16;100.00;58328.31;5053186;28;20041;-52
2022/04/12 03:44:20;;;;;;;6.15;3.53;;;;;;;-148.16;100.00;58328.31;5051656;28;20534;-47
2022/04/12 03:47:05;;;;;;;5.78;3.53;;;;;;;-148.16;100.00;58328.31;5052922;28;20099;-49
2022/04/12 03:49:50;;;;;;;7.97;4.10;;;;;;;-148.16;100.00;58328.31;5051928;28;20079;-53
2022/04/12 03:52:35;;;;;;;7.80;4.13;;;;;;;-148.16;100.00;58328.31;5052435;28;20492;-52
2022/04/12 03:55:46;;;;;;;7.68;3.90;;;;;;;-148.16;100.00;58328.31;5052713;28;20044;-52
2022/04/12 03:58:26;;;;;;;6.95;4.10;;;;;;;-148.16;100.00;58328.31;5051549;28;20048;-51
2022/04/12 04:01:11;;;;;;;6.78;2.92;;;;;;;-148.16;100.00;58328.31;5056042;28;20595;-53
2022/04/12 04:03:56;;;;;;;6.50;3.17;;;;;;;-148.16;100.00;58328.31;5054673;28;20059;-53
2022/04/12 04:06:41;;;;;;;7.88;3.63;;;;;;;-148.16;100.00;58328.31;5052269;28;20049;-50
2022/04/12 04:09:26;;;;;;;8.00;3.78;;;;;;;-148.16;100.00;58328.31;5058630;28;20049;-52
2022/04/12 04:12:11;;;;;;;5.20;3.05;;;;;;;-148.16;100.00;58328.31;5071327;28;20075;-51
2022/04/12 04:14:56;;;;;;;5.05;3.17;;;;;;;-148.16;100.00;58328.31;5059498;28;20128;-51
2022/04/12 04:17:46;;;;;;;4.85;2.80;;;;;;;-148.16;100.00;58328.31;5067447;28;20060;-50
2022/04/12 04:20:31;;;;;;;5.75;3.38;;;;;;;-148.16;100.00;58328.31;5065392;28;20040;-53
2022/04/12 04:23:15;;;;;;;5.43;3.28;;;;;;;-148.16;100.00;58328.31;5062843;28;20075;-50
2022/04/12 04:26:00;;;;;;;7.88;3.38;;;;;;;-148.16;100.00;58328.31;5037131;28;20044;-52
2022/04/12 04:28:47;;;;;;;5.85;3.10;;;;;;;-148.16;100.00;58328.31;5051948;28;20045;-53
2022/04/12 04:31:32;;;;;;;5.25;3.45;;;;;;;-148.16;100.00;58328.31;5051910;28;20065;-52
2022/04/12 04:34:17;;;;;;;5.45;2.63;;;;;;;-148.16;100.00;58328.31;5050698;28;20044;-49
2022/04/12 04:37:02;;;;;;;5.22;2.58;;;;;;;-148.16;100.00;58328.31;5036200;28;20041;-48
2022/04/12 04:39:46;;;;;;;6.28;3.30;;;;;;;-148.16;100.00;58328.31;5051922;28;20095;-52
2022/04/12 04:42:33;;;;;;;7.57;2.80;;;;;;;-148.16;100.00;58328.31;5050533;28;20055;-49
2022/04/12 04:45:19;;;;;;;8.45;3.53;;;;;;;-148.16;100.00;58328.31;5060216;28;20040;-56
2022/04/12 04:48:04;;;;;;;6.05;3.03;;;;;;;-148.16;100.00;58328.31;5063935;28;20186;-53
2022/04/12 04:50:49;;;;;;;6.25;3.33;;;;;;;-148.16;100.00;58328.31;5060255;28;20091;-53
2022/04/12 04:53:36;;;;;;;5.75;3.17;;;;;;;-148.16;100.00;58328.31;5070004;28;20053;-51
2022/04/12 04:56:22;;;;;;;7.95;3.28;;;;;;;-148.16;100.00;58328.31;5070111;28;20048;-48
2022/04/12 04:59:07;;;;;;;5.80;2.40;;;;;;;-148.16;100.00;58328.31;5055615;28;20086;-52
2022/04/12 05:01:51;;;;;;;4.72;1.80;;;;;;;-148.16;100.00;58328.31;5051428;28;20052;-49
2022/04/12 05:04:36;;;;;;;7.07;3.13;;;;;;;-148.16;100.00;58328.31;5050592;28;20045;-57
2022/04/12 05:07:27;;;;;;;7.45;2.75;;;;;;;-148.16;100.00;58328.31;5050032;28;20086;-53
2022/04/12 05:10:14;;;;;;;4.40;2.38;;;;;;;-148.16;100.00;58328.31;5063619;28;20048;-50
2022/04/12 05:13:01;;;;;;;8.55;2.92;;;;;;;-148.16;100.00;58328.31;5061558;28;20051;-50
2022/04/12 05:15:45;;;;;;;7.43;2.67;;;;;;;-148.16;100.00;58328.31;5068091;28;20052;-52
2022/04/12 05:18:30;;;;;;;7.85;3.15;;;;;;;-148.16;100.00;58328.31;5056834;28;20037;-51
2022/04/12 05:21:15;;;;;;;5.82;3.10;;;;;;;-148.16;100.00;58328.31;5053493;28;20069;-52
2022/04/12 05:23:59;;;;;;;8.23;2.90;;;;;;;-148.16;100.00;58328.31;5050629;28;20045;-51
2022/04/12 05:26:44;;;;;;;5.22;2.45;;;;;;;-148.16;100.00;58328.31;5049909;28;20563;-49
2022/04/12 05:29:29;;;;;;;5.00;2.90;;;;;;;-148.16;100.00;58328.31;5056342;28;20095;-52
2022/04/12 05:32:13;;;;;;;4.97;2.25;;;;;;;-148.16;100.00;58328.31;5052642;28;20162;-50
2022/04/12 05:34:58;;;;;;;6.25;2.75;;;;;;;-148.16;100.00;58328.31;5054435;28;20037;-52
2022/04/12 05:37:44;;;;;;;5.97;3.08;;;;;;;-148.16;100.00;58328.31;5052972;28;20041;-52
2022/04/12 05:40:45;;;;;;;5.75;2.50;;;;;;;-148.16;100.00;58328.31;5060236;28;20045;-49
2022/04/12 05:43:29;;;;;;;5.50;2.45;;;;;;;-148.16;100.00;58328.31;5054453;28;20057;-53
2022/04/12 05:46:14;;;;;;;6.05;3.15;;;;;;;-148.16;100.00;58328.31;5054956;28;20060;-53
2022/04/12 05:48:59;;;;;;;5.47;2.95;;;;;;;-148.16;100.00;58328.31;5054497;28;20380;-53
2022/04/12 05:51:43;;;;;;;5.68;2.67;;;;;;;-148.16;100.00;58328.31;5054703;28;20048;-51
2022/04/12 05:54:28;;;;;;;6.13;2.20;;;;;;;-148.16;100.00;58328.31;5054077;28;20048;-53
2022/04/12 05:57:13;;;;;;;8.60;3.92;;;;;;;-148.16;100.00;58328.31;5041833;28;20087;-53
2022/04/12 05:59:58;;;;;;;6.57;2.58;;;;;;;-148.16;100.00;58328.31;5052883;28;20040;-52
2022/04/12 06:02:43;;;;;;;6.20;1.88;;;;;;;-148.16;100.00;58328.31;5053056;28;20401;-52
2022/04/12 06:05:30;;;;;;;7.25;3.10;;;;;;;-148.16;100.00;58328.31;5053796;28;20077;-55
2022/04/12 06:08:14;;;;;;;8.98;3.70;;;;;;;-148.16;100.00;58328.31;5053876;28;20045;-54
2022/04/12 06:10:59;;;;;;;7.47;3.25;;;;;;;-148.16;100.00;58328.31;5052616;28;20041;-53
2022/04/12 06:13:44;;;;;;;8.30;2.92;;;;;;;-148.16;100.00;58328.31;5055188;28;20047;-53
2022/04/12 06:16:29;;;;;;;5.28;2.67;;;;;;;-148.16;100.00;58328.31;5054272;28;20053;-47
2022/04/12 06:19:14;;;;;;;7.65;3.35;;;;;;;-148.16;100.00;58328.31;5053083;28;20033;-51
2022/04/12 06:21:59;;;;;;;7.40;3.08;;;;;;;-148.16;100.00;58328.31;5057883;28;20226;-51
2022/04/12 06:24:43;;;;;;;6.45;2.53;;;;;;;-148.16;100.00;58328.31;5055396;28;20037;-47
2022/04/12 06:27:52;;;;;;;6.40;3.03;;;;;;;-148.16;100.00;58328.31;5052581;28;20049;-48
2022/04/12 06:30:38;;;;;;;5.55;2.90;;;;;;;-148.16;100.00;58328.31;5053872;28;20048;-47
2022/04/12 06:33:24;;;;;;;8.60;3.33;;;;;;;-148.16;100.00;58328.31;5053675;28;20506;-49
2022/04/12 06:36:09;;;;;;;6.85;3.22;;;;;;;-148.16;100.00;58328.31;5053926;28;20076;-49
2022/04/12 06:38:54;;;;;;;6.07;2.97;;;;;;;-148.16;100.00;58328.31;5052389;28;20453;-48
2022/04/12 06:41:39;;;;;;;6.88;3.33;;;;;;;-148.16;100.00;58328.31;5052805;28;20073;-55
2022/04/12 06:44:24;;;;;;;6.90;3.47;;;;;;;-148.16;100.00;58328.31;5058208;28;20836;-55
2022/04/12 06:47:09;;;;;;;7.28;3.60;;;;;;;-148.16;100.00;58328.31;5071109;28;20072;-56
2022/04/12 06:49:53;;;;;;;8.18;3.10;;;;;;;-148.16;100.00;58328.31;5063924;28;20056;-53
2022/04/12 06:52:39;;;;;;;7.20;3.60;;;;;;;-148.16;100.00;58328.31;5065008;28;20531;-54
2022/04/12 06:55:24;;;;;;;7.15;3.53;;;;;;;-148.16;100.00;58328.31;5053363;28;20052;-57
2022/04/12 06:58:09;;;;;;;5.38;2.60;;;;;;;-148.16;100.00;58328.31;5052067;28;20041;-52
2022/04/12 07:00:53;;;;;;;6.95;3.47;;;;;;;-148.16;100.00;58328.31;5080432;28;20107;-49
2022/04/12 07:03:38;;;;;;;6.75;3.60;;;;;;;-148.16;100.00;58328.31;5053562;28;20068;-52
2022/04/12 07:06:23;;;;;;;7.05;3.83;;;;;;;-148.16;100.00;58328.31;5068819;28;20093;-53
2022/04/12 07:09:10;;;;;;;8.50;3.97;;;;;;;-148.16;100.00;58328.31;5057662;28;20067;-50
2022/04/12 07:11:56;;;;;;;7.15;3.63;;;;;;;-148.16;100.00;58328.31;5073494;28;20041;-54
2022/04/12 07:14:41;;;;;;;7.95;3.60;;;;;;;-148.16;100.00;58328.31;5072903;28;20064;-53
2022/04/12 07:17:26;;;;;;;8.10;3.60;;;;;;;-148.16;100.00;58328.31;5073044;28;20051;-52
2022/04/12 07:20:12;;;;;;;6.85;3.72;;;;;;;-148.16;100.00;58328.31;5073031;28;20079;-54
2022/04/12 07:22:56;;;;;;;6.68;3.50;;;;;;;-148.16;100.00;58328.31;5068491;28;20047;-54
2022/04/12 07:25:41;;;;;;;8.93;3.80;;;;;;;-148.16;100.00;58328.31;5057616;28;20144;-51
2022/04/12 07:28:26;;;;;;;8.55;4.00;;;;;;;-148.16;100.00;58328.31;5060587;28;20148;-51
2022/04/12 07:31:11;;;;;;;8.05;3.75;;;;;;;-148.16;100.00;58328.31;5051564;28;20443;-52
2022/04/12 07:33:55;;;;;;;7.15;3.35;;;;;;;-148.16;100.00;58328.31;5052849;28;20041;-51
2022/04/12 07:36:47;;;;;;;7.65;3.50;;;;;;;-148.16;100.00;58328.31;5052367;28;20033;-53
2022/04/12 07:39:31;;;;;;;8.85;3.42;;;;;;;-148.16;100.00;58328.31;5051801;28;20037;-55
2022/04/12 07:42:16;;;;;;;6.82;3.95;;;;;;;-148.16;100.00;58328.31;5052503;28;20480;-51
2022/04/12 07:45:01;;;;;;;7.78;3.83;;;;;;;-148.16;100.00;58328.31;5052205;28;20056;-53
2022/04/12 07:47:46;;;;;;;7.95;4.05;;;;;;;-148.16;100.00;58328.31;5051915;28;20362;-54
2022/04/12 07:50:31;;;;;;;8.50;3.80;;;;;;;-148.16;100.00;58328.31;5052074;28;20056;-52
2022/04/12 07:53:16;;;;;;;6.70;3.80;;;;;;;-148.16;100.00;58328.31;5059999;28;20041;-51
2022/04/12 07:56:00;;;;;;;8.25;4.15;;;;;;;-148.16;100.00;58328.31;5052562;28;20044;-59
2022/04/12 07:58:45;;;;;;;8.30;3.47;;;;;;;-148.16;100.00;58328.31;5054701;28;20041;-59
2022/04/12 08:01:30;;;;;;;9.32;3.63;;;;;;;-148.16;100.00;58328.31;5051937;28;20037;-57
2022/04/12 08:04:15;;;;;;;4.38;2.83;;;;;;;-148.16;100.00;58328.31;5051248;28;20060;-58
2022/04/12 08:06:59;;;;;;;8.88;3.92;;;;;;;-148.16;100.00;58328.31;5051252;28;20056;-54
2022/04/12 08:09:44;;;;;;;7.68;3.50;;;;;;;-148.16;100.00;58328.31;5060743;28;20489;-54
2022/04/12 08:12:29;;;;;;;6.45;2.95;;;;;;;-148.16;100.00;58328.31;5070653;28;20044;-54
2022/04/12 08:15:15;;;;;;;7.65;3.60;;;;;;;-148.16;100.00;58328.31;5069894;28;20526;-54
2022/04/12 08:18:00;;;;;;;7.35;3.65;;;;;;;-148.16;100.00;58328.31;5071918;28;20535;-56
2022/04/12 08:20:49;;;;;;;7.78;3.97;;;;;;;-148.16;100.00;58328.31;5062052;28;20041;-57
2022/04/12 08:23:34;;;;;;;6.43;3.50;;;;;;;-148.16;100.00;58328.31;5078129;28;20137;-57
2022/04/12 08:26:20;;;;;;;8.82;3.80;;;;;;;-148.16;100.00;58328.31;5050800;28;20040;-56
2022/04/12 08:29:05;;;;;;;6.57;3.40;;;;;;;-148.16;100.00;58328.31;5051460;28;20047;-53
2022/04/12 08:31:50;;;;;;;8.93;3.72;;;;;;;-148.16;100.00;58328.31;5050990;28;20037;-55
2022/04/12 08:34:35;;;;;;;8.57;3.60;;;;;;;-148.16;100.00;58328.31;5062920;28;20052;-54
2022/04/12 08:37:21;;;;;;;6.88;3.85;;;;;;;-148.16;100.00;58328.31;5050924;28;20037;-56
2022/04/12 08:40:06;;;;;;;6.97;3.60;;;;;;;-148.16;100.00;58328.31;5049992;28;20069;-54
2022/04/12 08:42:53;;;;;;;12.00;3.80;;;;;;;-148.16;100.00;58328.31;5051256;28;20507;-56
2022/04/12 08:45:41;;;;;;;12.15;3.60;;;;;;;-148.16;100.00;58328.31;5050501;28;20508;-53
2022/04/12 08:48:28;;;;;;;9.35;4.55;;;;;;;-148.16;100.00;58328.31;5051507;28;20049;-55
2022/04/12 08:51:12;;;;;;;7.72;4.07;;;;;;;-148.16;100.00;58328.31;5049840;28;20155;-58
2022/04/12 08:53:58;;;;;;;12.20;5.13;;;;;;;-148.16;100.00;58328.31;5051330;28;20033;-56
2022/04/12 08:56:44;;;;;;;10.15;4.07;;;;;;;-148.16;100.00;58328.31;5050930;28;20044;-56
2022/04/12 08:59:29;;;;;;;11.43;4.72;;;;;;;-148.16;100.00;58328.31;5055724;28;20048;-58
2022/04/12 09:02:14;;;;;;;11.20;4.63;;;;;;;-148.16;100.00;58328.31;5051154;28;20041;-47
2022/04/12 09:04:59;;;;;;;11.52;4.80;;;;;;;-148.16;100.00;58328.31;5053157;28;20040;-52
2022/04/12 09:07:48;;;;;;;9.98;4.22;;;;;;;-148.16;100.00;58328.31;5094350;28;20450;-56
2022/04/12 09:10:35;;;;;;;8.52;4.68;;;;;;;-148.16;100.00;58328.31;5050496;28;20049;-57
2022/04/12 09:13:20;;;;;;;7.55;4.32;;;;;;;-148.16;100.00;58328.31;5056966;28;20056;-56
2022/04/12 09:16:09;;;;;;;7.43;4.30;;;;;;;-148.16;100.00;58328.31;5053764;28;20051;-58
2022/04/12 09:19:07;;;;;;;7.70;4.13;;;;;;;;;;5083066;27;20389;-62
2022/04/12 09:21:52;;;;;;;10.25;5.15;;;;;;;;;;5063713;28;20500;-61
2022/04/12 09:24:37;;;;;;;8.02;4.00;;;;;;;;;;5062710;28;20464;-58
2022/04/12 09:27:22;;;;;;;7.53;3.90;;;;;;;;;;5050501;28;20066;-60
2022/04/12 09:30:08;;;;;;;9.27;3.80;;;;;;;;;;5048263;28;20073;-59
2022/04/12 09:32:54;;;;;;;9.68;3.65;;;;;;;;;;5062963;28;20094;-59
2022/04/12 09:35:38;;;;;;;8.43;4.20;;;;;;;;;;5053499;28;20044;-59
2022/04/12 09:38:30;;;;;;;8.80;4.53;;;;;;;;;;5067893;28;20044;-61
2022/04/12 09:41:17;;;;;;;9.45;3.78;;;;;;;;;;5065786;28;20041;-58
2022/04/12 09:44:11;;;;;;;7.32;4.05;;;;;;;;;;5061383;28;20144;-58
2022/04/12 09:46:57;;;;;;;8.98;4.05;;;;;;;;;;5066233;28;20036;-57
2022/04/12 09:49:48;;;;;;;9.68;4.28;;;;;;;;;;5067245;28;20048;-58
2022/04/12 09:52:32;;;;;;;8.02;3.97;;;;;;;;;;5067649;28;20064;-58
2022/04/12 09:55:31;;;;;;;7.78;3.42;;;;;;;;;;5068269;28;20428;-56
2022/04/12 09:58:16;;;;;;;8.13;3.63;;;;;;;;;;5068475;28;20072;-57
2022/04/12 10:01:01;;;;;;;9.68;5.43;;;;;;;;;;5053718;28;20057;-57
2022/04/12 10:03:52;;;;;;;6.55;3.88;;;;;;;;;;5068712;28;20051;-55
2022/04/12 10:06:41;;;;;;;9.25;3.95;;;;;;;;;;5069307;28;20048;-54
2022/04/12 10:09:27;;;;;;;6.35;3.40;;;;;;;;;;5068397;28;20443;-55
2022/04/12 10:12:12;;;;;;;8.35;4.07;;;;;;;;;;5068309;28;20488;-56
2022/04/12 10:15:01;;;;;;;6.75;3.97;;;;;;;;;;5063316;28;20045;-58
2022/04/12 10:17:46;;;;;;;8.65;3.53;;;;;;;;;;5048561;28;20060;-57
2022/04/12 10:20:31;;;;;;;10.27;4.10;;;;;;;;;;5048507;28;20045;-58
2022/04/12 10:23:16;;;;;;;7.15;3.53;;;;;;;;;;5048366;28;20045;-58
2022/04/12 10:26:01;;;;;;;8.48;4.60;;;;;;;;;;5052798;28;20052;-57
2022/04/12 10:28:50;;;;;;;7.40;3.78;;;;;;;;;;5061186;28;20045;-57
2022/04/12 10:31:34;;;;;;;8.15;4.10;;;;;;;;;;5050567;28;20094;-56
2022/04/12 10:34:19;;;;;;;8.68;4.45;;;;;;;;;;5050838;28;20499;-60
2022/04/12 10:37:10;;;;;;;8.27;4.13;;;;;;;;;;5051134;28;20041;-58
2022/04/12 10:40:00;;;;;;;7.57;3.95;;;;;;;;;;5049104;28;20064;-57
2022/04/12 10:42:49;;;;;;;7.85;3.95;;;;;;;;;;5049733;28;20033;-58
2022/04/12 10:45:34;;;;;;;10.38;4.25;;;;;;;;;;5050290;28;20147;-57
2022/04/12 10:48:22;;;;;;;6.80;3.67;;;;;;;;;;5053204;28;20045;-58
2022/04/12 10:51:07;;;;;;;8.60;3.97;;;;;;;;;;5050329;28;20041;-56
2022/04/12 10:53:55;;;;;;;8.13;3.95;;;;;;;;;;5047696;28;20536;-58
2022/04/12 10:56:39;;;;;;;8.30;4.13;;;;;;;;;;5044466;28;20411;-58
2022/04/12 10:59:39;;;;;;;10.65;4.47;;;;;;;;;;5053491;28;20072;-58
2022/04/12 11:02:28;;;;;;;8.85;3.88;;;;;;;;;;5054405;28;20048;-57
2022/04/12 11:05:31;;;;;;;8.55;3.60;;;;;;;;;;5054534;28;20041;-60
2022/04/12 11:08:16;;;;;;;7.05;3.38;;;;;;;;;;5063150;28;20039;-56
2022/04/12 11:11:10;;;;;;;7.05;3.28;;;;;;;;;;5053217;28;20072;-56
2022/04/12 11:13:55;;;;;;;7.32;3.60;;;;;;;;;;5054197;28;20102;-57
2022/04/12 11:16:47;;;;;;;8.23;4.22;;;;;;;;;;5039359;28;20132;-57
2022/04/12 11:19:47;;;;;;;7.22;3.40;;;;;;;;;;5053092;28;20045;-57
2022/04/12 11:22:41;;;;;;;8.80;4.45;;;;;;;;;;5054054;28;20037;-59
2022/04/12 11:25:28;;;;;;;7.10;3.58;;;;;;;;;;5053120;28;20060;-55
2022/04/12 11:28:15;;;;;;;8.32;3.78;;;;;;;;;;5040142;28;20053;-57
2022/04/12 11:30:59;;;;;;;8.05;4.13;;;;;;;;;;5053156;28;20515;-52
2022/04/12 11:33:44;;;;;;;7.05;3.60;;;;;;;;;;5053776;28;20036;-56
2022/04/12 11:36:29;;;;;;;9.30;4.40;;;;;;;;;;5053842;28;20041;-60
2022/04/12 11:39:20;;;;;;;7.70;4.07;;;;;;;;;;5053726;28;20484;-59
2022/04/12 11:42:05;;;;;;;9.18;3.67;;;;;;;;;;5052799;28;20041;-59
2022/04/12 11:44:51;;;;;;;8.32;4.10;;;;;;;;;;5051701;28;20049;-60
2022/04/12 11:47:39;;;;;;;9.35;4.65;;;;;;;;;;5053029;28;20051;-60
2022/04/12 11:50:23;;;;;;;7.25;3.70;;;;;;;;;;5053672;28;20110;-63
2022/04/12 11:53:08;;;;;;;9.95;4.07;;;;;;;;;;5051902;28;20049;-63
2022/04/12 11:56:02;;;;;;;7.90;3.53;;;;;;;;;;5053456;28;20047;-65
2022/04/12 11:58:47;;;;;;;4.70;2.90;;;;;;;;;;5053028;28;20040;-53
2022/04/12 12:01:31;;;;;;;6.30;3.03;;;;;;;;;;5053627;28;20049;-59
2022/04/12 12:04:16;;;;;;;8.55;3.78;;;;;;;;;;5051940;28;20049;-57
2022/04/12 12:07:01;;;;;;;4.50;2.65;;;;;;;;;;5053156;28;20037;-58
2022/04/12 12:09:54;;;;;;;5.95;2.30;;;;;;;;;;5051953;28;20040;-68
2022/04/12 12:12:38;;;;;;;6.75;3.13;;;;;;;;;;5051203;28;20395;-61
2022/04/12 12:15:24;;;;;;;10.02;3.90;;;;;;;;;;5052467;28;20037;-59
2022/04/12 12:18:09;;;;;;;5.57;2.63;;;;;;;;;;5050376;28;20056;-58
2022/04/12 12:20:55;;;;;;;5.80;2.78;;;;;;;;;;5051789;28;20044;-59
2022/04/12 12:23:39;;;;;;;5.97;2.90;;;;;;;;;;5051362;28;20040;-58
2022/04/12 12:26:28;;;;;;;5.18;2.55;;;;;;;;;;5052185;28;20073;-59
2022/04/12 12:29:13;;;;;;;6.10;2.35;;;;;;;;;;5051311;28;20491;-60
2022/04/12 12:31:58;;;;;;;6.25;2.50;;;;;;;;;;5052352;28;20048;-58
2022/04/12 12:34:44;;;;;;;6.95;2.90;;;;;;;;;;5052640;28;20045;-60
2022/04/12 12:37:29;;;;;;;5.43;3.10;;;;;;;;;;5052314;28;20191;-59
2022/04/12 12:40:18;;;;;;;6.93;3.53;;;;;;;;;;5052657;28;20041;-59
2022/04/12 12:43:04;;;;;;;6.80;3.60;;;;;;;;;;5051647;28;20122;-60
2022/04/12 12:45:49;;;;;;;6.13;3.55;;;;;;;;;;5049059;28;20055;-59
2022/04/12 12:48:34;;;;;;;7.60;4.18;;;;;;;;;;5047914;28;20499;-59
2022/04/12 12:51:19;;;;;;;8.10;4.32;;;;;;;;;;5034409;28;20048;-65
2022/04/12 12:54:04;;;;;;;11.05;4.07;;;;;;;;;;5032394;28;20048;-67
2022/04/12 12:56:49;;;;;;;7.18;3.10;;;;;;;;;;5032218;28;20041;-66
2022/04/12 12:59:34;;;;;;;6.32;3.00;;;;;;;;;;5031019;28;20042;-68
2022/04/12 13:02:19;;;;;;;6.40;3.20;;;;;;;;;;5031447;28;20128;-67
2022/04/12 13:05:05;;;;;;;5.47;2.78;;;;;;;;;;5032071;28;20053;-67
2022/04/12 13:07:53;;;;;;;7.60;3.30;;;;;;;;;;5032290;28;20057;-75
2022/04/12 13:10:39;;;;;;;6.53;2.53;;;;;;;;;;5048736;28;20128;-70
2022/04/12 13:13:23;;;;;;;6.00;3.17;;;;;;;;;;5051480;28;20060;-69
2022/04/12 13:16:08;;;;;;;6.93;3.42;;;;;;;;;;5051546;28;20110;-70
2022/04/12 13:19:01;;;;;;;5.32;2.38;;;;;;;;;;5051596;28;20053;-67
2022/04/12 13:21:46;;;;;;;6.90;3.00;;;;;;;;;;5050831;28;20041;-64
2022/04/12 13:24:34;;;;;;;6.68;2.83;;;;;;;;;;5052411;28;20048;-71
2022/04/12 13:27:19;;;;;;;7.07;3.33;;;;;;;;;;5050971;28;20052;-66
2022/04/12 13:30:05;;;;;;;6.20;3.10;;;;;;;;;;5048763;28;20160;-70
2022/04/12 13:32:50;;;;;;;5.40;2.53;;;;;;;;;;5056311;28;20047;-67
2022/04/12 13:35:36;;;;;;;7.43;3.03;;;;;;;;;;5048880;28;20041;-69